Time;durP1;ratioP1;P1;durP2;ratioP2;P2;SDS_P1;SDS_P2;PMS_P1;PMS_P2;Temp;Humidity;BMP_temperature;BMP_pressure;BME280_temperature;BME280_humidity;BME280_pressure;Samples;Min_cycle;Max_cycle;Signal;HPM_P1;HPM_P2
2022/10/20 00:00:06;;;;;;;4.40;2.38;;;7.90;99.90;;;;;;5014807;28;20046;-75
2022/10/20 00:02:31;;;;;;;5.30;1.98;;;7.80;99.90;;;;;;5014339;28;20494;-76
2022/10/20 00:04:57;;;;;;;5.28;2.60;;;7.80;99.90;;;;;;5013993;28;20044;-74
2022/10/20 00:07:22;;;;;;;4.28;1.95;;;7.80;99.90;;;;;;5014489;28;20079;-75
2022/10/20 00:09:48;;;;;;;3.45;2.17;;;7.80;99.90;;;;;;5014497;28;20064;-74
2022/10/20 00:12:14;;;;;;;3.95;2.20;;;7.70;99.90;;;;;;4996682;28;20045;-74
2022/10/20 00:14:40;;;;;;;3.60;2.30;;;7.70;99.90;;;;;;5017643;28;20092;-75
2022/10/20 00:17:05;;;;;;;4.78;2.20;;;7.70;99.90;;;;;;5014427;28;20426;-75
2022/10/20 00:19:31;;;;;;;3.15;2.15;;;7.70;99.90;;;;;;4996961;28;20050;-76
2022/10/20 00:21:58;;;;;;;3.47;1.83;;;7.90;99.90;;;;;;5014474;28;20046;-75
2022/10/20 00:24:24;;;;;;;4.00;2.20;;;7.70;99.90;;;;;;5013407;28;20499;-75
2022/10/20 00:26:50;;;;;;;3.28;2.10;;;7.70;99.90;;;;;;4993975;28;20046;-74
2022/10/20 00:29:16;;;;;;;3.47;2.10;;;7.60;99.90;;;;;;5010651;28;20139;-74
2022/10/20 00:31:42;;;;;;;3.95;2.63;;;7.60;99.90;;;;;;5013769;28;20357;-74
2022/10/20 00:34:08;;;;;;;3.90;2.10;;;7.60;99.90;;;;;;5014527;28;20549;-74
2022/10/20 00:36:34;;;;;;;3.22;2.08;;;7.50;99.90;;;;;;5014278;28;20057;-75
2022/10/20 00:39:02;;;;;;;2.88;1.75;;;7.50;99.90;;;;;;5014316;28;20042;-75
2022/10/20 00:41:28;;;;;;;5.85;5.25;;;7.50;99.90;;;;;;5015761;28;20058;-75
2022/10/20 00:43:57;;;;;;;4.85;2.30;;;7.40;99.90;;;;;;4998355;28;20407;-75
2022/10/20 00:46:35;;;;;;;5.78;2.05;;;7.40;99.90;;;;;;5005328;28;20053;-75
2022/10/20 00:49:10;;;;;;;4.63;2.28;;;7.40;99.90;;;;;;5014484;28;20132;-75
2022/10/20 00:51:36;;;;;;;4.15;2.17;;;7.40;99.90;;;;;;4994312;28;20054;-75
2022/10/20 00:54:09;;;;;;;4.07;2.08;;;7.40;99.90;;;;;;5013569;28;20547;-75
2022/10/20 00:56:39;;;;;;;4.13;1.95;;;7.30;99.90;;;;;;4991208;28;20088;-75
2022/10/20 00:59:05;;;;;;;4.88;2.60;;;7.30;99.90;;;;;;5013879;28;20049;-75
2022/10/20 01:01:31;;;;;;;2.80;1.70;;;7.30;99.90;;;;;;5013274;28;20046;-75
2022/10/20 01:03:57;;;;;;;2.80;1.80;;;7.20;99.90;;;;;;5014012;28;20045;-75
2022/10/20 01:06:23;;;;;;;2.92;2.00;;;7.20;99.90;;;;;;5014066;28;20050;-75
2022/10/20 01:08:53;;;;;;;4.68;2.10;;;7.20;99.90;;;;;;5013799;28;20100;-75
2022/10/20 01:11:27;;;;;;;3.63;2.17;;;7.20;99.90;;;;;;5013524;28;20133;-75
2022/10/20 01:14:09;;;;;;;3.67;1.80;;;7.50;99.90;;;;;;4999491;28;21918;-75
2022/10/20 01:16:46;;;;;;;3.72;2.10;;;7.20;99.90;;;;;;5018501;28;20088;-75
2022/10/20 01:19:39;;;;;;;3.50;2.00;;;7.20;99.90;;;;;;5013417;28;20060;-75
2022/10/20 01:22:22;;;;;;;3.80;2.33;;;7.20;99.90;;;;;;5013421;28;20045;-75
2022/10/20 01:25:15;;;;;;;4.82;1.90;;;7.10;99.90;;;;;;5012683;28;20054;-75
2022/10/20 01:27:43;;;;;;;2.97;1.88;;;7.20;99.90;;;;;;5009033;28;20046;-74
2022/10/20 01:30:11;;;;;;;4.57;2.30;;;7.20;99.90;;;;;;4992567;28;20451;-75
2022/10/20 01:32:46;;;;;;;3.72;2.10;;;7.10;99.90;;;;;;5005700;28;20132;-74
2022/10/20 01:35:23;;;;;;;4.13;1.92;;;7.10;99.90;;;;;;5013322;28;20045;-75
2022/10/20 01:38:27;;;;;;;3.78;2.17;;;7.10;99.90;;;;;;5013455;28;20050;-75
2022/10/20 01:41:16;;;;;;;3.35;2.00;;;7.30;99.90;;;;;;5004895;28;20049;-75
2022/10/20 01:43:45;;;;;;;2.80;1.95;;;7.10;99.90;;;;;;5012949;28;20073;-74
2022/10/20 01:46:14;;;;;;;3.95;2.40;;;7.00;99.90;;;;;;5012969;28;20054;-74
2022/10/20 01:48:40;;;;;;;5.03;2.40;;;7.00;99.90;;;;;;5012954;28;20086;-74
2022/10/20 01:51:08;;;;;;;3.00;2.10;;;6.90;99.90;;;;;;5013167;28;20054;-74
2022/10/20 01:53:34;;;;;;;5.45;2.20;;;6.90;99.90;;;;;;5012972;28;20100;-75
2022/10/20 01:56:00;;;;;;;3.45;2.10;;;7.00;99.90;;;;;;4994526;28;20050;-74
2022/10/20 01:59:04;;;;;;;4.25;1.88;;;6.90;99.90;;;;;;5012882;28;20057;-75
2022/10/20 02:01:50;;;;;;;3.53;2.05;;;6.90;99.90;;;;;;5012617;28;20045;-75
2022/10/20 02:04:20;;;;;;;3.22;2.30;;;6.90;99.90;;;;;;4992046;28;20072;-75
2022/10/20 02:07:10;;;;;;;4.65;2.50;;;6.80;99.90;;;;;;5010938;28;20083;-74
2022/10/20 02:09:46;;;;;;;4.28;2.28;;;6.80;99.90;;;;;;5011935;28;20517;-75
2022/10/20 02:12:18;;;;;;;4.22;2.15;;;6.80;99.90;;;;;;5012528;28;20101;-74
2022/10/20 02:14:45;;;;;;;5.13;1.88;;;6.80;99.90;;;;;;5020276;28;20046;-75
2022/10/20 02:17:14;;;;;;;4.30;2.55;;;6.70;99.90;;;;;;4995057;28;20433;-76
2022/10/20 02:19:42;;;;;;;4.32;2.33;;;6.70;99.90;;;;;;5011738;28;20525;-75
2022/10/20 02:22:10;;;;;;;4.40;2.35;;;6.70;99.90;;;;;;4995435;28;20054;-75
2022/10/20 02:24:39;;;;;;;3.67;2.20;;;6.70;99.90;;;;;;5011322;28;20168;-75
2022/10/20 02:27:10;;;;;;;4.00;2.63;;;7.00;99.90;;;;;;5012588;28;20046;-75
2022/10/20 02:29:41;;;;;;;3.67;2.33;;;6.60;99.90;;;;;;4975536;28;20577;-75
2022/10/20 02:32:08;;;;;;;4.30;2.30;;;6.90;99.90;;;;;;5009044;28;20052;-75
2022/10/20 02:34:33;;;;;;;4.13;2.30;;;6.80;99.90;;;;;;5010852;28;20399;-74
2022/10/20 02:36:59;;;;;;;3.25;2.35;;;6.60;99.90;;;;;;5011457;28;20081;-75
2022/10/20 02:39:25;;;;;;;4.70;2.50;;;6.60;99.90;;;;;;5012263;28;20056;-75
2022/10/20 02:41:51;;;;;;;4.85;2.83;;;6.60;99.90;;;;;;5002575;28;20045;-74
2022/10/20 02:44:17;;;;;;;5.13;2.70;;;6.60;99.90;;;;;;4994585;28;20049;-74
2022/10/20 02:46:43;;;;;;;4.32;2.42;;;6.80;99.90;;;;;;5011487;28;20085;-74
2022/10/20 02:49:08;;;;;;;5.13;2.58;;;6.50;99.90;;;;;;5012023;28;20049;-75
2022/10/20 02:51:34;;;;;;;6.50;2.45;;;6.60;99.90;;;;;;5011916;28;20086;-75
2022/10/20 02:54:00;;;;;;;4.38;2.60;;;6.60;99.90;;;;;;5011695;28;20045;-74
2022/10/20 02:56:25;;;;;;;3.88;2.50;;;6.70;99.90;;;;;;5011332;28;20041;-75
2022/10/20 02:58:51;;;;;;;4.90;2.70;;;6.60;99.90;;;;;;5011679;28;20781;-75
2022/10/20 03:01:17;;;;;;;5.00;3.05;;;6.60;99.90;;;;;;5010189;28;20107;-75
2022/10/20 03:03:42;;;;;;;5.22;2.55;;;6.60;99.90;;;;;;5011728;28;20041;-75
2022/10/20 03:06:14;;;;;;;4.50;2.53;;;6.60;99.90;;;;;;5011557;28;20049;-75
2022/10/20 03:08:40;;;;;;;4.28;2.42;;;6.70;99.90;;;;;;5011657;28;20510;-73
2022/10/20 03:11:06;;;;;;;4.15;2.47;;;6.60;99.90;;;;;;5011500;28;20048;-74
2022/10/20 03:13:32;;;;;;;4.63;2.92;;;6.70;99.90;;;;;;5011504;28;20045;-73
2022/10/20 03:15:58;;;;;;;5.13;3.50;;;6.60;99.90;;;;;;5011568;28;20046;-73
2022/10/20 03:18:23;;;;;;;6.03;4.03;;;6.50;99.90;;;;;;5011402;28;20041;-74
2022/10/20 03:20:50;;;;;;;4.20;3.00;;;6.70;99.90;;;;;;5010739;28;20050;-74
2022/10/20 03:23:16;;;;;;;5.50;3.05;;;6.80;99.90;;;;;;5011250;28;20108;-74
2022/10/20 03:25:42;;;;;;;4.82;3.28;;;6.50;99.90;;;;;;5010939;28;20058;-74
2022/10/20 03:28:08;;;;;;;8.48;5.63;;;6.50;99.90;;;;;;5011485;28;20541;-75
2022/10/20 03:30:33;;;;;;;6.43;3.40;;;6.50;99.90;;;;;;5010432;28;20034;-74
2022/10/20 03:32:59;;;;;;;6.95;5.55;;;6.50;99.90;;;;;;4975772;28;20060;-74
2022/10/20 03:35:25;;;;;;;5.72;3.38;;;6.60;99.90;;;;;;5009043;28;20394;-74
2022/10/20 03:37:51;;;;;;;6.78;3.28;;;6.50;99.90;;;;;;5009251;28;20495;-74
2022/10/20 03:40:17;;;;;;;6.15;3.95;;;6.50;99.90;;;;;;5009741;28;20037;-74
2022/10/20 03:42:43;;;;;;;6.05;3.40;;;6.50;99.90;;;;;;5010737;28;20056;-74
2022/10/20 03:45:09;;;;;;;5.32;3.90;;;6.50;99.90;;;;;;5011461;28;20058;-74
2022/10/20 03:47:35;;;;;;;7.28;3.75;;;6.50;99.90;;;;;;4993560;28;20406;-74
2022/10/20 03:50:01;;;;;;;4.88;3.40;;;6.80;99.90;;;;;;5011214;28;20096;-74
2022/10/20 03:52:26;;;;;;;5.93;3.40;;;6.50;99.90;;;;;;5010065;28;20580;-74
2022/10/20 03:54:52;;;;;;;5.15;3.60;;;7.00;99.90;;;;;;5010569;28;20050;-74
2022/10/20 03:57:20;;;;;;;5.45;3.83;;;6.50;99.90;;;;;;4993582;28;20045;-74
2022/10/20 03:59:45;;;;;;;4.72;3.67;;;6.40;99.90;;;;;;4975045;28;20051;-73
2022/10/20 04:02:39;;;;;;;5.80;3.58;;;6.40;99.90;;;;;;5010377;28;20052;-74
2022/10/20 04:05:05;;;;;;;6.93;3.80;;;6.50;99.90;;;;;;5006528;28;20065;-74
2022/10/20 04:07:31;;;;;;;4.93;3.42;;;6.50;99.90;;;;;;5010960;28;20049;-74
2022/10/20 04:09:57;;;;;;;5.97;4.50;;;6.60;99.90;;;;;;5010954;28;20513;-74
2022/10/20 04:12:23;;;;;;;5.22;3.70;;;6.50;99.90;;;;;;5010811;28;20046;-74
2022/10/20 04:14:49;;;;;;;5.90;4.30;;;6.40;99.90;;;;;;4993325;28;20049;-74
2022/10/20 04:17:15;;;;;;;5.85;4.57;;;6.70;99.90;;;;;;5010761;28;20479;-76
2022/10/20 04:19:41;;;;;;;5.13;3.88;;;6.40;99.90;;;;;;5010855;28;20057;-76
2022/10/20 04:22:06;;;;;;;6.15;4.03;;;6.70;99.90;;;;;;5010557;28;20045;-76
2022/10/20 04:24:32;;;;;;;6.13;4.32;;;6.70;99.90;;;;;;4992506;28;20058;-75
2022/10/20 04:26:58;;;;;;;6.57;4.60;;;6.50;99.90;;;;;;5010792;28;20093;-76
2022/10/20 04:29:24;;;;;;;7.20;4.38;;;6.50;99.90;;;;;;5010858;28;20088;-75
2022/10/20 04:31:49;;;;;;;6.18;4.00;;;6.90;99.90;;;;;;5011109;28;20104;-75
2022/10/20 04:34:15;;;;;;;5.93;4.13;;;6.50;99.90;;;;;;5013997;28;20489;-76
2022/10/20 04:36:40;;;;;;;6.70;4.43;;;6.50;99.90;;;;;;5014082;28;20096;-75
2022/10/20 04:39:06;;;;;;;6.93;4.15;;;6.50;99.90;;;;;;4996769;28;20042;-75
2022/10/20 04:41:32;;;;;;;8.55;4.50;;;6.60;99.90;;;;;;5013930;28;20077;-75
2022/10/20 04:43:58;;;;;;;6.13;4.00;;;6.50;99.90;;;;;;5014268;28;20452;-76
2022/10/20 04:46:25;;;;;;;7.47;4.50;;;6.60;99.90;;;;;;4996591;28;20038;-75
2022/10/20 04:48:52;;;;;;;5.95;4.38;;;6.90;99.90;;;;;;5014208;28;20096;-75
2022/10/20 04:51:18;;;;;;;6.90;4.68;;;6.50;99.90;;;;;;5014224;28;20050;-74
2022/10/20 04:53:44;;;;;;;5.72;4.18;;;6.70;99.90;;;;;;4996437;28;20061;-73
2022/10/20 04:56:17;;;;;;;7.40;4.50;;;6.50;99.90;;;;;;5013584;28;20056;-74
2022/10/20 04:58:52;;;;;;;7.18;4.80;;;6.40;99.90;;;;;;5014071;28;20387;-74
2022/10/20 05:01:20;;;;;;;9.50;4.88;;;6.40;99.90;;;;;;5013864;28;20054;-74
2022/10/20 05:03:45;;;;;;;6.93;4.57;;;6.40;99.90;;;;;;5013757;28;20085;-74
2022/10/20 05:06:17;;;;;;;6.53;4.57;;;6.90;99.90;;;;;;4996271;28;20080;-74
2022/10/20 05:08:45;;;;;;;6.20;4.85;;;6.50;99.90;;;;;;5013907;28;20041;-74
2022/10/20 05:11:12;;;;;;;7.70;5.00;;;6.50;99.90;;;;;;5014007;28;20049;-73
2022/10/20 05:13:38;;;;;;;7.72;4.68;;;6.50;99.90;;;;;;5012892;28;20498;-74
2022/10/20 05:16:04;;;;;;;6.25;4.60;;;6.50;99.90;;;;;;4995888;28;20470;-73
2022/10/20 05:18:30;;;;;;;9.50;4.82;;;6.50;99.90;;;;;;5013276;28;20050;-73
2022/10/20 05:20:56;;;;;;;6.07;4.60;;;6.50;99.90;;;;;;5013818;28;20124;-74
2022/10/20 05:23:22;;;;;;;6.18;4.45;;;6.50;99.90;;;;;;5013114;28;20054;-73
2022/10/20 05:25:47;;;;;;;5.60;4.30;;;6.70;99.90;;;;;;4995269;28;20517;-74
2022/10/20 05:28:13;;;;;;;6.88;5.22;;;6.40;99.90;;;;;;4995886;28;20391;-74
2022/10/20 05:30:39;;;;;;;6.88;5.00;;;6.40;99.90;;;;;;5013090;28;20046;-74
2022/10/20 05:33:04;;;;;;;7.43;5.18;;;6.40;99.90;;;;;;4996117;28;20046;-73
2022/10/20 05:35:30;;;;;;;6.90;5.18;;;6.40;99.90;;;;;;4995726;28;20069;-74
2022/10/20 05:37:56;;;;;;;7.18;4.82;;;6.30;99.90;;;;;;5013359;28;20057;-74
2022/10/20 05:40:22;;;;;;;6.90;4.85;;;6.50;99.90;;;;;;5018202;28;20041;-74
2022/10/20 05:42:48;;;;;;;9.00;5.60;;;6.60;99.90;;;;;;5013367;28;20049;-74
2022/10/20 05:45:14;;;;;;;8.23;5.15;;;6.30;99.90;;;;;;5012392;28;20030;-73
2022/10/20 05:47:41;;;;;;;7.45;5.20;;;6.30;99.90;;;;;;5013047;28;20433;-74
2022/10/20 05:50:08;;;;;;;6.65;5.00;;;6.30;99.90;;;;;;5013027;28;20128;-74
2022/10/20 05:52:35;;;;;;;24.73;22.42;;;6.20;99.90;;;;;;5012795;28;20061;-74
2022/10/20 05:55:01;;;;;;;7.97;5.00;;;6.80;99.90;;;;;;5011727;28;20046;-74
2022/10/20 05:57:26;;;;;;;7.05;5.05;;;6.40;99.90;;;;;;5012831;28;20054;-73
2022/10/20 05:59:52;;;;;;;7.63;5.05;;;6.20;99.90;;;;;;5013056;28;20384;-74
2022/10/20 06:02:18;;;;;;;8.32;6.10;;;6.20;99.90;;;;;;5012632;28;20053;-74
2022/10/20 06:04:43;;;;;;;9.60;5.60;;;6.20;99.90;;;;;;5012830;28;20081;-74
2022/10/20 06:07:09;;;;;;;9.48;6.25;;;6.20;99.90;;;;;;5012452;28;20077;-74
2022/10/20 06:09:36;;;;;;;8.88;6.03;;;6.20;99.90;;;;;;5011877;28;20593;-74
2022/10/20 06:12:02;;;;;;;8.10;5.57;;;6.20;99.90;;;;;;5012726;28;20046;-75
2022/10/20 06:14:28;;;;;;;8.07;5.72;;;6.20;99.90;;;;;;5019871;28;20496;-74
2022/10/20 06:16:54;;;;;;;9.00;5.00;;;6.20;99.90;;;;;;5013444;28;20054;-65
2022/10/20 06:19:21;;;;;;;7.68;5.07;;;6.20;99.90;;;;;;5012035;28;20402;-66
2022/10/20 06:21:47;;;;;;;7.18;4.88;;;6.20;99.90;;;;;;5012474;28;20394;-65
2022/10/20 06:24:13;;;;;;;7.07;5.22;;;6.20;99.90;;;;;;5011989;28;20054;-65
2022/10/20 06:26:39;;;;;;;9.15;5.50;;;6.20;99.90;;;;;;5011843;28;20115;-65
2022/10/20 06:29:08;;;;;;;7.50;5.05;;;6.20;99.90;;;;;;5012223;28;20056;-65
2022/10/20 06:31:39;;;;;;;7.93;5.63;;;6.20;99.90;;;;;;5011762;28;20428;-65
2022/10/20 06:34:07;;;;;;;8.60;6.05;;;6.20;99.90;;;;;;5011848;28;20513;-65
2022/10/20 06:36:37;;;;;;;7.57;5.35;;;6.30;99.90;;;;;;5011903;28;20070;-65
2022/10/20 06:39:05;;;;;;;9.40;5.80;;;6.30;99.90;;;;;;5012208;28;20410;-65
2022/10/20 06:41:31;;;;;;;9.27;5.75;;;6.40;99.90;;;;;;4994217;28;20049;-65
2022/10/20 06:43:58;;;;;;;7.57;5.30;;;6.40;99.90;;;;;;5011809;28;20053;-65
2022/10/20 06:46:29;;;;;;;7.50;5.72;;;6.40;99.90;;;;;;5012289;28;20057;-65
2022/10/20 06:48:55;;;;;;;7.82;5.28;;;6.40;99.90;;;;;;5012089;28;20046;-65
2022/10/20 06:51:22;;;;;;;10.98;5.53;;;6.50;99.90;;;;;;5011878;28;20410;-65
2022/10/20 06:53:49;;;;;;;9.63;6.22;;;6.50;99.90;;;;;;5011856;28;20053;-65
2022/10/20 06:56:17;;;;;;;7.85;5.18;;;6.50;99.90;;;;;;5011117;28;20410;-65
2022/10/20 06:58:45;;;;;;;10.70;6.00;;;6.70;99.90;;;;;;4998638;28;20335;-66
2022/10/20 07:01:13;;;;;;;8.40;5.55;;;6.70;99.90;;;;;;5007164;28;20121;-66
2022/10/20 07:03:42;;;;;;;8.35;5.93;;;6.60;99.90;;;;;;5009635;28;20120;-66
2022/10/20 07:06:12;;;;;;;8.02;5.13;;;6.70;99.90;;;;;;5011106;28;20173;-65
2022/10/20 07:08:37;;;;;;;7.57;5.47;;;6.70;99.90;;;;;;5010218;28;20041;-65
2022/10/20 07:11:05;;;;;;;9.25;5.60;;;6.80;99.90;;;;;;5009944;28;20053;-65
2022/10/20 07:13:32;;;;;;;8.38;5.55;;;6.80;99.90;;;;;;5010097;28;20042;-66
2022/10/20 07:15:58;;;;;;;9.23;5.82;;;6.90;99.90;;;;;;5023764;28;20393;-66
2022/10/20 07:18:25;;;;;;;7.53;5.40;;;7.00;99.90;;;;;;4997530;28;20125;-66
2022/10/20 07:20:54;;;;;;;8.90;5.43;;;7.00;99.90;;;;;;5004341;28;20436;-65
2022/10/20 07:23:20;;;;;;;8.23;5.28;;;7.10;99.90;;;;;;5030577;28;20124;-66
2022/10/20 07:25:45;;;;;;;7.72;5.20;;;7.20;99.90;;;;;;5016667;28;20136;-65
2022/10/20 07:28:11;;;;;;;9.75;5.82;;;7.20;99.90;;;;;;5024255;28;20053;-65
2022/10/20 07:30:41;;;;;;;7.88;5.03;;;7.30;99.90;;;;;;5028261;28;20049;-65
2022/10/20 07:33:08;;;;;;;7.43;5.07;;;7.30;99.90;;;;;;5030838;28;20124;-65
2022/10/20 07:35:34;;;;;;;7.25;5.38;;;7.30;99.90;;;;;;5025468;28;20041;-65
2022/10/20 07:38:00;;;;;;;8.27;5.43;;;7.40;99.90;;;;;;5030778;28;20045;-66
2022/10/20 07:40:26;;;;;;;7.50;5.35;;;7.60;99.90;;;;;;5030730;28;20041;-65
2022/10/20 07:42:52;;;;;;;10.30;5.88;;;7.40;99.90;;;;;;5030127;28;20114;-65
2022/10/20 07:45:18;;;;;;;7.32;5.30;;;7.50;99.90;;;;;;5030513;28;20501;-65
2022/10/20 07:47:43;;;;;;;7.82;5.60;;;7.70;99.90;;;;;;4995970;28;20085;-65
2022/10/20 07:50:09;;;;;;;7.53;5.47;;;7.60;99.90;;;;;;5030118;28;20379;-65
2022/10/20 07:52:35;;;;;;;7.50;5.30;;;7.60;99.90;;;;;;5024252;28;20061;-64
2022/10/20 07:55:00;;;;;;;7.45;5.22;;;7.60;99.90;;;;;;5012344;28;20510;-65
2022/10/20 07:57:26;;;;;;;10.18;5.15;;;7.70;99.90;;;;;;5015791;28;20048;-65
2022/10/20 07:59:52;;;;;;;6.93;5.07;;;7.70;99.90;;;;;;5020410;28;20053;-65
2022/10/20 08:02:19;;;;;;;6.70;5.30;;;7.80;99.90;;;;;;5029904;28;20041;-65
2022/10/20 08:04:45;;;;;;;6.68;5.10;;;7.80;99.90;;;;;;5030683;28;20121;-65
2022/10/20 08:07:11;;;;;;;7.63;5.43;;;8.00;99.90;;;;;;5029562;28;20164;-65
2022/10/20 08:09:36;;;;;;;8.02;5.38;;;7.90;99.90;;;;;;5019924;28;20049;-65
2022/10/20 08:12:03;;;;;;;7.07;5.30;;;8.00;99.90;;;;;;5011823;28;20038;-65
2022/10/20 08:14:33;;;;;;;7.97;4.97;;;8.00;99.90;;;;;;5023883;28;20144;-65
2022/10/20 08:17:03;;;;;;;6.20;4.80;;;8.10;99.90;;;;;;5034072;28;20061;-65
2022/10/20 08:19:29;;;;;;;8.00;4.85;;;8.10;99.90;;;;;;5034106;28;20520;-66
2022/10/20 08:21:55;;;;;;;7.93;5.20;;;8.20;99.90;;;;;;5034072;28;20037;-65
2022/10/20 08:24:21;;;;;;;6.78;4.95;;;8.20;99.90;;;;;;5033706;28;20068;-65
2022/10/20 08:26:46;;;;;;;7.82;4.45;;;8.30;99.90;;;;;;5033399;28;20120;-65
2022/10/20 08:29:12;;;;;;;6.88;5.20;;;8.30;99.90;;;;;;5033966;28;20072;-65
2022/10/20 08:31:43;;;;;;;6.88;4.60;;;8.30;99.90;;;;;;5033482;28;20041;-65
2022/10/20 08:34:09;;;;;;;9.32;5.45;;;8.40;99.90;;;;;;5033647;28;20049;-65
2022/10/20 08:36:37;;;;;;;8.80;5.07;;;8.40;99.90;;;;;;5033748;28;20454;-65
2022/10/20 08:39:03;;;;;;;7.65;5.15;;;8.70;99.90;;;;;;5033678;28;20052;-66
2022/10/20 08:41:32;;;;;;;7.35;4.68;;;8.60;99.90;;;;;;5033390;28;20045;-65
2022/10/20 08:44:00;;;;;;;6.05;4.55;;;8.60;99.90;;;;;;5023932;28;20079;-65
2022/10/20 08:46:33;;;;;;;8.02;5.13;;;8.70;99.90;;;;;;5023092;28;20496;-66
2022/10/20 08:48:59;;;;;;;7.60;4.70;;;8.80;99.90;;;;;;5028160;28;20045;-66
2022/10/20 08:51:30;;;;;;;5.93;4.50;;;8.80;99.90;;;;;;5018750;28;20049;-66
2022/10/20 08:53:58;;;;;;;9.35;5.38;;;8.90;99.90;;;;;;5030268;28;20045;-66
2022/10/20 08:56:28;;;;;;;7.90;4.60;;;9.00;99.90;;;;;;5032840;28;20037;-67
2022/10/20 08:58:53;;;;;;;7.40;4.35;;;9.10;99.90;;;;;;5015924;28;20054;-68
2022/10/20 09:01:26;;;;;;;7.15;4.63;;;9.20;99.90;;;;;;5032956;28;20052;-66
2022/10/20 09:03:56;;;;;;;7.47;4.75;;;9.30;99.90;;;;;;5032938;28;20041;-70
2022/10/20 09:06:22;;;;;;;5.75;4.53;;;9.50;99.90;;;;;;5033594;28;20088;-67
2022/10/20 09:08:48;;;;;;;7.82;5.03;;;9.60;99.90;;;;;;5032529;28;20282;-68
2022/10/20 09:11:26;;;;;;;7.30;4.57;;;9.70;99.90;;;;;;5023919;28;20052;-66
2022/10/20 09:13:52;;;;;;;6.78;4.60;;;9.80;99.90;;;;;;4996516;28;20053;-65
2022/10/20 09:16:36;;;;;;;6.88;4.82;;;9.80;99.90;;;;;;5005133;28;20048;-66
2022/10/20 09:19:05;;;;;;;6.28;4.50;;;10.00;99.90;;;;;;5018194;28;20085;-67
2022/10/20 09:21:34;;;;;;;7.38;4.30;;;9.90;99.90;;;;;;5015590;28;20038;-66
2022/10/20 09:24:03;;;;;;;6.30;4.40;;;9.90;99.90;;;;;;5012764;28;20162;-67
2022/10/20 09:26:40;;;;;;;8.38;4.88;;;9.90;99.90;;;;;;5016380;28;20129;-66
2022/10/20 09:29:14;;;;;;;5.97;4.63;;;9.90;99.90;;;;;;5029832;28;20049;-66
2022/10/20 09:31:46;;;;;;;7.45;4.45;;;9.90;99.90;;;;;;5025158;28;20038;-65
2022/10/20 09:34:25;;;;;;;6.40;4.88;;;9.90;99.90;;;;;;5031662;28;20547;-65
2022/10/20 09:37:17;;;;;;;7.13;4.57;;;9.90;99.90;;;;;;5030543;28;20049;-66
2022/10/20 09:39:46;;;;;;;6.50;4.60;;;9.90;99.90;;;;;;5028838;28;20061;-67
2022/10/20 09:42:17;;;;;;;6.15;4.32;;;9.90;99.90;;;;;;5019124;28;20045;-65
2022/10/20 09:44:53;;;;;;;8.57;4.32;;;10.00;99.90;;;;;;5026640;28;20370;-66
2022/10/20 09:47:21;;;;;;;7.47;4.55;;;10.00;99.90;;;;;;5014573;28;20514;-66
2022/10/20 09:49:55;;;;;;;8.35;5.10;;;10.10;99.90;;;;;;5011545;28;20406;-65
2022/10/20 09:52:29;;;;;;;6.10;4.82;;;10.10;99.90;;;;;;5032642;28;20084;-66
2022/10/20 09:55:18;;;;;;;5.10;4.38;;;10.10;99.90;;;;;;5031656;28;20050;-66
2022/10/20 09:57:47;;;;;;;5.97;4.50;;;10.30;99.90;;;;;;5015720;28;20461;-67
2022/10/20 10:00:41;;;;;;;5.35;4.68;;;10.20;99.90;;;;;;5014341;28;20091;-66
2022/10/20 10:03:22;;;;;;;9.00;4.82;;;10.40;99.90;;;;;;5028994;28;20148;-67
2022/10/20 10:05:58;;;;;;;6.25;4.35;;;10.50;99.90;;;;;;5031815;28;20564;-66
2022/10/20 10:08:28;;;;;;;6.43;4.50;;;10.60;99.90;;;;;;5032419;28;20048;-66
2022/10/20 10:11:11;;;;;;;5.80;4.20;;;10.60;99.90;;;;;;5027990;28;20048;-66
2022/10/20 10:13:42;;;;;;;7.57;4.05;;;10.70;99.90;;;;;;5014333;28;20049;-66
2022/10/20 10:16:10;;;;;;;5.68;4.07;;;10.70;99.90;;;;;;5019229;28;20042;-66
2022/10/20 10:18:37;;;;;;;5.63;4.30;;;10.70;99.90;;;;;;5015284;28;20057;-65
2022/10/20 10:21:09;;;;;;;5.10;3.97;;;10.70;99.90;;;;;;5026085;28;20509;-65
2022/10/20 10:23:59;;;;;;;5.10;4.30;;;10.80;99.90;;;;;;5031743;28;20053;-65
2022/10/20 10:26:44;;;;;;;5.35;3.92;;;10.80;99.90;;;;;;5030344;28;20079;-66
2022/10/20 10:29:18;;;;;;;5.80;4.43;;;10.80;99.90;;;;;;5017666;28;20060;-65
2022/10/20 10:31:56;;;;;;;4.93;3.90;;;10.90;99.90;;;;;;5027495;28;20049;-66
2022/10/20 10:34:31;;;;;;;5.75;4.50;;;10.90;99.90;;;;;;5020375;28;20039;-65
2022/10/20 10:36:57;;;;;;;5.97;4.18;;;11.10;99.90;;;;;;5019043;28;20050;-65
2022/10/20 10:39:23;;;;;;;5.05;3.97;;;11.20;99.90;;;;;;5027382;28;20041;-65
2022/10/20 10:42:12;;;;;;;6.32;3.90;;;11.50;99.90;;;;;;5030311;28;20156;-65
2022/10/20 10:45:05;;;;;;;7.40;4.57;;;11.80;99.90;;;;;;5022695;28;20465;-66
2022/10/20 10:48:05;;;;;;;4.90;3.92;;;12.00;99.90;;;;;;5031372;28;20132;-66
2022/10/20 10:50:52;;;;;;;6.35;4.03;;;12.10;99.90;;;;;;5031415;28;20049;-66
2022/10/20 10:53:40;;;;;;;5.65;4.15;;;12.20;99.90;;;;;;5031317;28;20045;-65
2022/10/20 10:56:24;;;;;;;4.93;3.90;;;12.40;99.90;;;;;;5031041;28;20500;-65
2022/10/20 10:59:12;;;;;;;5.03;4.13;;;12.50;99.90;;;;;;5030944;28;20088;-65
2022/10/20 11:01:59;;;;;;;6.38;3.85;;;12.50;99.90;;;;;;5029942;28;20620;-66
2022/10/20 11:04:36;;;;;;;4.85;3.70;;;12.50;99.90;;;;;;5012843;28;20045;-66
2022/10/20 11:07:31;;;;;;;5.78;4.03;;;12.40;99.90;;;;;;5007991;28;20556;-66
2022/10/20 11:10:12;;;;;;;5.65;3.95;;;12.40;99.90;;;;;;4997315;28;20046;-65
2022/10/20 11:13:14;;;;;;;6.85;4.22;;;12.30;99.90;;;;;;5016669;28;20041;-65
2022/10/20 11:16:01;;;;;;;5.50;3.97;;;12.30;99.90;;;;;;5028315;28;20096;-65
2022/10/20 11:18:47;;;;;;;8.05;4.43;;;12.30;99.90;;;;;;5017082;28;20490;-65
2022/10/20 11:21:18;;;;;;;5.35;4.05;;;12.30;99.90;;;;;;5012310;28;20054;-65
2022/10/20 11:24:06;;;;;;;6.35;4.15;;;12.40;99.90;;;;;;5030513;28;20056;-65
2022/10/20 11:26:43;;;;;;;5.60;4.32;;;12.50;99.90;;;;;;5030153;28;20053;-66
2022/10/20 11:29:30;;;;;;;5.63;4.70;;;12.50;99.90;;;;;;5029936;28;20045;-65
2022/10/20 11:32:09;;;;;;;6.88;4.40;;;12.60;99.90;;;;;;5030491;28;20123;-65
2022/10/20 11:34:43;;;;;;;5.43;4.40;;;12.60;99.90;;;;;;5030403;28;20439;-65
2022/10/20 11:37:23;;;;;;;5.82;4.22;;;12.60;99.90;;;;;;5029652;28;20053;-65
2022/10/20 11:40:02;;;;;;;5.55;4.45;;;12.60;99.90;;;;;;5029957;28;20076;-65
2022/10/20 11:42:49;;;;;;;5.30;4.10;;;12.60;99.90;;;;;;5006168;28;20048;-65
2022/10/20 11:45:34;;;;;;;5.70;3.95;;;12.60;99.90;;;;;;5030043;28;20506;-66
2022/10/20 11:48:32;;;;;;;6.40;4.50;;;12.60;99.90;;;;;;5013089;28;20053;-65
2022/10/20 11:51:30;;;;;;;6.80;4.47;;;12.60;99.90;;;;;;5030522;28;20042;-65
2022/10/20 11:54:13;;;;;;;5.32;4.35;;;12.60;99.90;;;;;;5026603;28;20049;-65
2022/10/20 11:57:13;;;;;;;7.82;4.47;;;12.70;99.90;;;;;;5019532;28;20064;-64
2022/10/20 11:59:53;;;;;;;7.38;4.30;;;12.70;99.90;;;;;;5030492;28;20084;-65
2022/10/20 12:02:22;;;;;;;6.03;4.40;;;12.70;99.90;;;;;;5026747;28;20482;-65
2022/10/20 12:05:08;;;;;;;7.57;4.78;;;12.80;99.90;;;;;;5030395;28;20049;-66
2022/10/20 12:07:56;;;;;;;6.00;4.38;;;12.70;99.90;;;;;;5030312;28;20100;-65
2022/10/20 12:10:31;;;;;;;5.70;4.20;;;12.70;99.90;;;;;;5023181;28;20406;-65
2022/10/20 12:13:33;;;;;;;6.30;4.50;;;12.70;99.90;;;;;;5021994;28;20121;-66
2022/10/20 12:15:59;;;;;;;6.32;4.32;;;12.70;99.90;;;;;;5030206;28;20304;-65
2022/10/20 12:18:28;;;;;;;5.93;4.78;;;12.70;99.90;;;;;;5026564;28;20091;-65
2022/10/20 12:21:03;;;;;;;6.22;4.47;;;12.70;99.90;;;;;;5030407;28;20053;-65
2022/10/20 12:23:53;;;;;;;6.90;5.10;;;12.60;99.90;;;;;;5030141;28;20137;-65
2022/10/20 12:26:34;;;;;;;9.20;4.75;;;12.70;99.90;;;;;;5022914;28;20054;-65
2022/10/20 12:29:23;;;;;;;7.20;5.00;;;12.60;99.90;;;;;;4993098;28;20061;-65
2022/10/20 12:32:20;;;;;;;7.35;4.75;;;12.60;99.90;;;;;;4968258;28;20065;-65
2022/10/20 12:35:08;;;;;;;6.57;4.82;;;12.50;99.90;;;;;;5030017;28;20389;-65
2022/10/20 12:37:36;;;;;;;5.53;4.72;;;12.50;99.90;;;;;;5028769;28;20133;-66
2022/10/20 12:40:07;;;;;;;6.18;4.43;;;12.50;99.90;;;;;;5029369;28;20099;-66
2022/10/20 12:42:37;;;;;;;6.28;5.25;;;12.40;99.90;;;;;;5030344;28;20080;-65
2022/10/20 12:45:04;;;;;;;6.38;4.80;;;12.50;99.90;;;;;;5005933;28;20431;-66
2022/10/20 12:47:33;;;;;;;7.78;5.03;;;12.40;99.90;;;;;;5029717;28;20080;-73
2022/10/20 12:50:20;;;;;;;7.07;5.00;;;12.40;99.90;;;;;;5029127;28;20045;-72
2022/10/20 12:52:46;;;;;;;7.53;5.05;;;12.30;99.90;;;;;;5030844;28;20049;-72
2022/10/20 12:55:29;;;;;;;7.95;5.32;;;12.30;99.90;;;;;;5033103;28;20091;-72
2022/10/20 12:58:31;;;;;;;8.23;5.32;;;12.30;99.90;;;;;;5033277;28;20445;-73
2022/10/20 13:00:57;;;;;;;10.23;6.25;;;12.20;99.90;;;;;;4971538;28;20138;-72
2022/10/20 13:03:43;;;;;;;10.13;5.75;;;12.20;99.90;;;;;;5020522;28;20135;-72
2022/10/20 13:06:28;;;;;;;6.63;5.37;;;12.10;99.90;;;;;;5004500;28;20046;-72
2022/10/20 13:09:03;;;;;;;7.82;5.30;;;12.10;99.90;;;;;;5029094;28;20083;-73
2022/10/20 13:11:36;;;;;;;8.60;5.30;;;12.10;99.90;;;;;;5015755;28;20053;-73
2022/10/20 13:14:28;;;;;;;8.05;5.63;;;12.10;99.90;;;;;;5028078;28;20049;-73
2022/10/20 13:17:04;;;;;;;6.78;5.28;;;12.10;99.90;;;;;;5032253;28;20494;-72